Time;durP1;ratioP1;P1;durP2;ratioP2;P2;SDS_P1;SDS_P2;PMS_P1;PMS_P2;Temp;Humidity;BMP_temperature;BMP_pressure;BME280_temperature;BME280_humidity;BME280_pressure;Samples;Min_cycle;Max_cycle;Signal;HPM_P1;HPM_P2
2021/01/09 00:01:26;;;;;;;10.10;8.50;;;6.30;62.40;;;;;;5083774;28;20819;-79
2021/01/09 00:03:54;;;;;;;7.87;7.00;;;6.30;62.00;;;;;;5089734;28;20509;-79
2021/01/09 00:06:20;;;;;;;9.90;7.40;;;6.30;62.10;;;;;;5089644;28;20452;-79
2021/01/09 00:08:47;;;;;;;9.40;7.70;;;6.30;61.70;;;;;;5087081;28;20990;-77
2021/01/09 00:11:15;;;;;;;12.90;9.00;;;6.30;61.50;;;;;;5085373;28;20974;-78
2021/01/09 00:13:41;;;;;;;11.63;10.20;;;6.30;61.50;;;;;;5086364;28;20458;-79
2021/01/09 00:16:08;;;;;;;9.33;8.43;;;6.30;61.50;;;;;;5074444;28;20456;-78
2021/01/09 00:18:34;;;;;;;9.90;8.23;;;6.30;62.00;;;;;;5090140;28;20872;-78
2021/01/09 00:21:02;;;;;;;11.40;8.90;;;6.30;62.10;;;;;;5091529;28;20450;-78
2021/01/09 00:23:29;;;;;;;11.47;9.83;;;6.30;62.20;;;;;;5073914;28;20486;-78
2021/01/09 00:25:56;;;;;;;15.63;9.83;;;6.30;62.10;;;;;;5083392;28;20961;-78
2021/01/09 00:28:22;;;;;;;12.70;9.10;;;6.30;62.00;;;;;;5084130;28;20448;-78
2021/01/09 00:30:49;;;;;;;13.33;10.23;;;6.30;62.10;;;;;;5080681;28;20521;-78
2021/01/09 00:33:16;;;;;;;10.27;8.73;;;6.30;62.40;;;;;;5094295;28;20455;-76
2021/01/09 00:35:42;;;;;;;9.50;8.50;;;6.30;62.30;;;;;;5091623;28;20954;-77
2021/01/09 00:38:10;;;;;;;11.23;9.50;;;6.30;62.40;;;;;;5086372;28;20459;-77
2021/01/09 00:40:36;;;;;;;9.97;8.30;;;6.40;62.40;;;;;;5093586;28;20452;-77
2021/01/09 00:43:03;;;;;;;11.13;9.50;;;6.40;61.90;;;;;;5095652;28;20451;-76
2021/01/09 00:45:30;;;;;;;10.17;8.83;;;6.40;62.00;;;;;;5081136;28;20537;-78
2021/01/09 00:47:56;;;;;;;12.73;10.43;;;6.40;62.00;;;;;;5078332;28;20456;-79
2021/01/09 00:50:23;;;;;;;11.17;8.97;;;6.40;62.20;;;;;;5087005;28;20529;-77
2021/01/09 00:52:52;;;;;;;11.30;8.50;;;6.40;62.10;;;;;;5080245;28;20526;-78
2021/01/09 00:55:20;;;;;;;9.50;8.17;;;6.40;62.00;;;;;;5094705;28;20446;-78
2021/01/09 00:57:47;;;;;;;10.50;9.10;;;6.30;61.80;;;;;;5079370;28;20530;-77
2021/01/09 01:00:14;;;;;;;11.00;9.57;;;6.30;62.10;;;;;;5078339;28;21082;-78
2021/01/09 01:02:41;;;;;;;12.70;9.67;;;6.30;61.80;;;;;;5073516;28;21006;-78
2021/01/09 01:05:09;;;;;;;11.53;10.23;;;6.30;61.90;;;;;;5084674;28;20483;-78
2021/01/09 01:07:36;;;;;;;11.20;9.60;;;6.30;62.00;;;;;;5079095;28;20570;-78
2021/01/09 01:10:04;;;;;;;11.17;9.23;;;6.30;62.20;;;;;;5084421;28;20476;-78
2021/01/09 01:12:32;;;;;;;11.03;9.87;;;6.30;62.30;;;;;;5082492;28;20812;-77
2021/01/09 01:14:58;;;;;;;11.10;9.03;;;6.40;62.30;;;;;;5095153;28;20460;-77
2021/01/09 01:17:25;;;;;;;10.53;9.43;;;6.40;61.90;;;;;;5093652;28;20443;-77
2021/01/09 01:19:51;;;;;;;10.20;9.03;;;6.40;61.80;;;;;;5094685;28;20498;-78
2021/01/09 01:22:18;;;;;;;9.40;8.50;;;6.40;61.60;;;;;;5082012;28;20462;-78
2021/01/09 01:24:44;;;;;;;11.10;9.20;;;6.40;61.40;;;;;;5094531;28;20483;-78
2021/01/09 01:27:11;;;;;;;10.20;8.90;;;6.30;61.20;;;;;;5086499;28;20463;-78
2021/01/09 01:29:41;;;;;;;11.73;8.70;;;6.20;61.30;;;;;;5093261;28;20542;-78
2021/01/09 01:32:07;;;;;;;10.20;8.93;;;6.20;61.50;;;;;;5083080;28;21197;-77
2021/01/09 01:34:34;;;;;;;13.10;8.90;;;6.20;61.60;;;;;;5081624;28;20453;-78
2021/01/09 01:37:00;;;;;;;12.20;9.80;;;6.10;61.80;;;;;;5091278;28;20475;-77
2021/01/09 01:39:27;;;;;;;9.47;8.50;;;6.10;62.00;;;;;;5081026;28;20457;-77
2021/01/09 01:41:58;;;;;;;12.43;9.70;;;6.10;62.20;;;;;;5090623;28;20453;-79
2021/01/09 01:44:25;;;;;;;12.50;10.10;;;6.20;62.00;;;;;;5092700;28;20494;-78
2021/01/09 01:46:52;;;;;;;10.30;9.30;;;6.20;61.90;;;;;;5094310;28;20527;-78
2021/01/09 01:49:19;;;;;;;11.43;9.87;;;6.30;62.10;;;;;;5079184;28;20452;-79
2021/01/09 01:51:47;;;;;;;11.07;9.93;;;6.40;62.10;;;;;;5091419;28;20937;-79
2021/01/09 01:54:14;;;;;;;11.57;9.03;;;6.30;62.00;;;;;;5077152;28;20492;-79
2021/01/09 01:56:41;;;;;;;13.03;9.70;;;6.30;62.20;;;;;;5088756;28;20465;-79
2021/01/09 01:59:07;;;;;;;10.53;9.20;;;6.30;62.20;;;;;;5094115;28;20450;-79
2021/01/09 02:01:37;;;;;;;13.77;9.77;;;6.30;62.20;;;;;;5082206;28;20904;-79
2021/01/09 02:04:07;;;;;;;12.90;9.30;;;6.30;62.40;;;;;;5075804;28;20915;-80
2021/01/09 02:06:35;;;;;;;12.30;10.07;;;6.30;62.50;;;;;;5088007;28;20478;-78
2021/01/09 02:09:08;;;;;;;11.30;9.10;;;6.30;62.50;;;;;;5083046;28;20496;-79
2021/01/09 02:11:44;;;;;;;10.93;9.67;;;6.30;62.50;;;;;;5088175;28;20475;-78
2021/01/09 02:14:27;;;;;;;12.30;10.10;;;6.40;62.60;;;;;;5089440;28;20932;-78
2021/01/09 02:16:55;;;;;;;11.70;9.20;;;6.40;62.40;;;;;;5081550;28;20455;-78
2021/01/09 02:19:26;;;;;;;10.27;9.30;;;6.40;62.50;;;;;;5073693;28;20456;-79
2021/01/09 02:21:59;;;;;;;10.40;9.00;;;6.40;62.60;;;;;;5086975;28;20477;-78
2021/01/09 02:24:26;;;;;;;10.77;9.73;;;6.40;62.40;;;;;;5088236;28;20490;-79
2021/01/09 02:26:53;;;;;;;10.13;8.20;;;6.40;62.20;;;;;;5084851;28;20461;-79
2021/01/09 02:29:23;;;;;;;12.97;9.77;;;6.40;62.20;;;;;;5074139;28;20822;-79
2021/01/09 02:31:55;;;;;;;12.03;9.80;;;6.40;62.40;;;;;;5093271;28;20442;-79
2021/01/09 02:34:23;;;;;;;11.80;9.73;;;6.40;62.60;;;;;;5087937;28;20953;-78
2021/01/09 02:36:50;;;;;;;16.07;11.23;;;6.40;62.80;;;;;;5092634;28;20455;-79
2021/01/09 02:39:17;;;;;;;12.60;9.90;;;6.40;62.60;;;;;;5077064;28;20966;-79
2021/01/09 02:41:48;;;;;;;13.23;10.50;;;6.40;62.50;;;;;;5085929;28;20487;-79
2021/01/09 02:44:15;;;;;;;11.03;9.90;;;6.40;62.80;;;;;;5092215;28;20521;-80
2021/01/09 02:46:42;;;;;;;12.00;10.77;;;6.40;63.00;;;;;;5086174;28;20821;-79
2021/01/09 02:49:08;;;;;;;12.87;9.80;;;6.30;63.00;;;;;;5085477;28;20458;-77
2021/01/09 02:51:35;;;;;;;16.13;12.40;;;6.30;63.10;;;;;;5093514;28;20805;-79
2021/01/09 02:54:02;;;;;;;11.00;9.97;;;6.30;62.80;;;;;;5091881;28;20880;-77
2021/01/09 02:56:29;;;;;;;11.90;10.70;;;6.40;62.70;;;;;;5084766;28;20451;-78
2021/01/09 02:58:57;;;;;;;12.70;10.40;;;6.40;62.70;;;;;;5076836;28;20953;-77
2021/01/09 03:01:31;;;;;;;13.00;10.87;;;6.40;62.80;;;;;;5082518;28;20868;-78
2021/01/09 03:03:59;;;;;;;13.23;10.80;;;6.40;62.90;;;;;;5090105;28;20981;-80
2021/01/09 03:06:26;;;;;;;12.80;11.50;;;6.30;62.70;;;;;;5083857;28;20523;-78
2021/01/09 03:08:53;;;;;;;15.23;11.03;;;6.40;62.90;;;;;;5076619;28;20544;-79
2021/01/09 03:11:22;;;;;;;14.40;12.67;;;6.40;62.90;;;;;;5092373;28;20860;-78
2021/01/09 03:13:49;;;;;;;14.93;12.30;;;6.50;63.10;;;;;;5092440;28;20489;-80
2021/01/09 03:16:17;;;;;;;13.57;12.17;;;6.50;63.00;;;;;;5089497;28;20974;-78
2021/01/09 03:18:44;;;;;;;15.77;12.20;;;6.50;62.70;;;;;;5086282;28;20522;-78
2021/01/09 03:21:10;;;;;;;17.93;12.63;;;6.50;62.60;;;;;;5080458;28;20857;-78
2021/01/09 03:23:37;;;;;;;13.23;11.33;;;6.50;62.50;;;;;;5089437;28;20462;-79
2021/01/09 03:26:04;;;;;;;16.27;12.70;;;6.50;62.50;;;;;;5073654;28;20455;-77
2021/01/09 03:28:30;;;;;;;15.73;12.23;;;6.50;62.40;;;;;;5085429;28;20949;-77
2021/01/09 03:30:57;;;;;;;15.43;11.37;;;6.50;62.50;;;;;;5092907;28;20446;-78
2021/01/09 03:33:29;;;;;;;14.90;12.13;;;6.50;62.90;;;;;;5092254;28;20477;-78
2021/01/09 03:35:55;;;;;;;17.07;13.43;;;6.50;62.90;;;;;;5077519;28;20442;-78
2021/01/09 03:38:22;;;;;;;16.10;13.07;;;6.50;62.70;;;;;;5085196;28;20459;-78
2021/01/09 03:40:48;;;;;;;12.80;11.50;;;6.50;62.60;;;;;;5076518;28;20961;-79
2021/01/09 03:43:15;;;;;;;18.47;14.10;;;6.50;62.60;;;;;;5090126;28;20811;-79
2021/01/09 03:45:41;;;;;;;13.40;11.00;;;6.50;62.70;;;;;;5091835;28;21024;-79
2021/01/09 03:48:09;;;;;;;17.63;13.60;;;6.50;62.70;;;;;;5090770;28;20508;-78
2021/01/09 03:50:36;;;;;;;17.30;13.23;;;6.50;62.60;;;;;;5091802;28;20461;-78
2021/01/09 03:53:03;;;;;;;15.40;13.70;;;6.50;62.40;;;;;;5091256;28;20595;-79
2021/01/09 03:55:30;;;;;;;15.50;11.80;;;6.50;62.60;;;;;;5092122;28;20848;-79
2021/01/09 03:57:56;;;;;;;15.73;12.33;;;6.50;62.90;;;;;;5074359;28;20455;-79
2021/01/09 04:00:23;;;;;;;18.13;13.40;;;6.50;63.10;;;;;;5082448;28;21025;-79
2021/01/09 04:02:49;;;;;;;16.50;12.50;;;6.50;62.90;;;;;;5088804;28;20462;-79
2021/01/09 04:05:16;;;;;;;15.37;13.20;;;6.40;62.70;;;;;;5084371;28;20862;-79
2021/01/09 04:07:43;;;;;;;17.73;13.57;;;6.40;63.00;;;;;;5095145;28;20474;-79
2021/01/09 04:10:10;;;;;;;18.50;15.17;;;6.40;62.90;;;;;;5092531;28;20822;-79
2021/01/09 04:12:37;;;;;;;20.20;15.00;;;6.50;62.90;;;;;;5096045;28;20469;-78
2021/01/09 04:15:06;;;;;;;14.90;12.90;;;6.50;63.10;;;;;;5094656;28;20450;-77
2021/01/09 04:17:33;;;;;;;16.70;13.20;;;6.50;63.30;;;;;;5091616;28;20439;-77
2021/01/09 04:20:00;;;;;;;18.83;14.87;;;6.50;63.30;;;;;;5092797;28;21050;-77
2021/01/09 04:22:26;;;;;;;19.60;15.47;;;6.50;63.10;;;;;;5095461;28;20458;-76
2021/01/09 04:24:54;;;;;;;17.77;14.00;;;6.50;63.40;;;;;;5091323;28;20486;-77
2021/01/09 04:27:23;;;;;;;16.37;13.70;;;6.50;63.40;;;;;;5077622;28;20448;-76
2021/01/09 04:29:49;;;;;;;17.10;13.60;;;6.50;63.40;;;;;;5093276;28;20945;-77
2021/01/09 04:32:16;;;;;;;16.97;13.60;;;6.50;63.30;;;;;;5083481;28;20450;-78
2021/01/09 04:34:45;;;;;;;20.43;15.20;;;6.50;63.40;;;;;;5081369;28;20519;-77
2021/01/09 04:37:12;;;;;;;24.03;14.87;;;6.50;63.40;;;;;;5076130;28;20457;-77
2021/01/09 04:39:39;;;;;;;19.90;15.17;;;6.50;63.40;;;;;;5092723;28;20933;-77
2021/01/09 04:42:07;;;;;;;19.70;15.60;;;6.50;63.30;;;;;;5081733;28;20983;-78
2021/01/09 04:44:34;;;;;;;19.23;14.53;;;6.50;63.50;;;;;;5076644;28;21019;-78
2021/01/09 04:47:02;;;;;;;15.30;13.30;;;6.50;63.60;;;;;;5092310;28;20497;-79
2021/01/09 04:49:30;;;;;;;19.10;15.63;;;6.50;63.70;;;;;;5093275;28;20552;-78
2021/01/09 04:51:57;;;;;;;17.10;13.47;;;6.50;63.80;;;;;;5091441;28;20450;-79
2021/01/09 04:54:25;;;;;;;18.37;14.70;;;6.50;64.00;;;;;;5093913;28;20945;-79
2021/01/09 04:56:54;;;;;;;16.70;13.00;;;6.50;63.80;;;;;;5095314;28;20447;-79
2021/01/09 04:59:25;;;;;;;14.97;12.60;;;6.50;63.80;;;;;;5093004;28;20956;-77
2021/01/09 05:01:53;;;;;;;18.73;13.70;;;6.50;63.80;;;;;;5086580;28;20848;-78
2021/01/09 05:04:37;;;;;;;18.33;15.67;;;6.60;63.70;;;;;;5079743;28;20513;-81
2021/01/09 05:07:03;;;;;;;21.40;15.17;;;6.60;63.30;;;;;;5086378;28;20549;-76
2021/01/09 05:09:30;;;;;;;17.37;13.27;;;6.50;63.20;;;;;;5074691;28;20819;-77
2021/01/09 05:11:57;;;;;;;16.80;13.90;;;6.50;63.40;;;;;;5085782;28;20458;-78
2021/01/09 05:14:30;;;;;;;19.27;15.47;;;6.50;63.60;;;;;;5083680;28;20585;-78
2021/01/09 05:16:59;;;;;;;20.40;16.13;;;6.50;63.80;;;;;;5077975;28;20509;-78
2021/01/09 05:19:28;;;;;;;17.77;14.87;;;6.50;63.90;;;;;;5085387;28;20442;-78
2021/01/09 05:22:00;;;;;;;18.70;14.47;;;6.50;63.80;;;;;;5092001;28;20595;-78
2021/01/09 05:24:26;;;;;;;18.43;13.73;;;6.50;63.70;;;;;;5086743;28;20532;-82
2021/01/09 05:26:54;;;;;;;18.57;15.67;;;6.50;63.80;;;;;;5080808;28;20451;-78
2021/01/09 05:29:21;;;;;;;17.87;15.80;;;6.40;64.00;;;;;;5083643;28;20478;-77
2021/01/09 05:31:55;;;;;;;22.57;15.97;;;6.40;63.90;;;;;;5087433;28;20443;-79
2021/01/09 05:34:22;;;;;;;19.20;16.13;;;6.40;64.10;;;;;;5089800;28;20447;-78
2021/01/09 05:36:48;;;;;;;18.37;15.87;;;6.40;64.10;;;;;;5086153;28;20447;-78
2021/01/09 05:39:18;;;;;;;18.10;15.37;;;6.40;63.90;;;;;;5094200;28;20457;-79
2021/01/09 05:41:47;;;;;;;23.33;16.93;;;6.40;64.00;;;;;;5082262;28;20976;-78
2021/01/09 05:44:17;;;;;;;24.97;15.90;;;6.50;64.10;;;;;;5088557;28;21048;-78
2021/01/09 05:46:50;;;;;;;22.03;14.97;;;6.50;64.10;;;;;;5092424;28;21001;-77
2021/01/09 05:49:28;;;;;;;18.80;14.90;;;6.50;64.20;;;;;;5092572;28;20463;-77
2021/01/09 05:51:57;;;;;;;20.80;15.57;;;6.50;64.40;;;;;;5085924;28;20541;-78
2021/01/09 05:54:36;;;;;;;22.27;16.90;;;6.50;64.40;;;;;;5092012;28;20452;-77
2021/01/09 05:57:05;;;;;;;22.70;15.63;;;6.50;64.30;;;;;;5091291;28;20446;-78
2021/01/09 05:59:32;;;;;;;18.53;15.93;;;6.50;64.20;;;;;;5094274;28;20540;-78
2021/01/09 06:02:01;;;;;;;20.33;16.50;;;6.50;64.10;;;;;;5087908;28;20492;-76
2021/01/09 06:04:30;;;;;;;22.40;16.23;;;6.50;64.20;;;;;;5092944;28;20477;-77
2021/01/09 06:07:05;;;;;;;25.90;17.93;;;6.50;64.20;;;;;;5085620;28;20458;-78
2021/01/09 06:09:40;;;;;;;22.17;17.33;;;6.50;65.10;;;;;;5091830;28;20987;-77
2021/01/09 06:12:09;;;;;;;18.67;15.20;;;6.50;64.50;;;;;;5090831;28;20449;-77
2021/01/09 06:14:36;;;;;;;24.60;16.10;;;6.50;64.40;;;;;;5092427;28;20499;-77
2021/01/09 06:17:04;;;;;;;22.43;15.87;;;6.40;64.40;;;;;;5078204;28;20864;-78
2021/01/09 06:19:31;;;;;;;21.93;16.97;;;6.40;64.50;;;;;;5082188;28;20462;-76
2021/01/09 06:21:59;;;;;;;20.83;16.10;;;6.40;64.50;;;;;;5088107;28;20579;-78
2021/01/09 06:24:29;;;;;;;24.33;15.97;;;6.40;64.40;;;;;;5077748;28;20513;-77
2021/01/09 06:26:56;;;;;;;22.90;17.03;;;6.40;64.40;;;;;;5088242;28;20450;-77
2021/01/09 06:29:24;;;;;;;22.47;17.40;;;6.40;64.50;;;;;;5080132;28;20951;-77
2021/01/09 06:31:56;;;;;;;19.90;14.70;;;6.40;64.60;;;;;;5088062;28;20546;-78
2021/01/09 06:34:25;;;;;;;25.33;17.67;;;6.50;64.80;;;;;;5091560;28;20457;-78
2021/01/09 06:36:56;;;;;;;20.27;17.07;;;6.40;64.60;;;;;;5083134;28;20539;-78
2021/01/09 06:39:25;;;;;;;18.70;15.37;;;6.40;64.80;;;;;;5088276;28;20950;-78
2021/01/09 06:41:57;;;;;;;21.93;16.70;;;6.40;65.00;;;;;;5084482;28;20542;-76
2021/01/09 06:44:25;;;;;;;27.00;19.50;;;6.30;65.00;;;;;;5074313;28;20480;-76
2021/01/09 06:46:52;;;;;;;26.80;18.63;;;6.30;65.10;;;;;;5091048;28;20831;-79
2021/01/09 06:49:20;;;;;;;31.00;17.43;;;6.30;65.40;;;;;;5082076;28;20481;-77
2021/01/09 06:51:53;;;;;;;20.67;16.50;;;6.30;65.40;;;;;;5086525;28;20947;-78
2021/01/09 06:54:22;;;;;;;26.07;18.40;;;6.40;65.40;;;;;;5076637;28;20459;-78
2021/01/09 06:56:50;;;;;;;25.00;18.03;;;6.30;65.00;;;;;;5087399;28;20447;-78
2021/01/09 06:59:30;;;;;;;24.97;18.67;;;6.30;65.10;;;;;;5079272;28;20505;-77
2021/01/09 07:02:19;;;;;;;25.07;18.30;;;6.40;65.30;;;;;;5083464;28;20447;-78
2021/01/09 07:04:54;;;;;;;23.47;17.13;;;6.30;65.20;;;;;;5087294;28;20485;-76
2021/01/09 07:07:35;;;;;;;21.63;16.47;;;6.20;65.20;;;;;;5088876;28;20484;-77
2021/01/09 07:10:17;;;;;;;23.50;18.60;;;6.20;65.50;;;;;;5090283;28;20984;-77
2021/01/09 07:12:49;;;;;;;26.97;18.43;;;6.20;65.50;;;;;;5089922;28;20451;-76
2021/01/09 07:15:17;;;;;;;28.37;19.73;;;6.30;65.80;;;;;;5080485;28;20448;-78
2021/01/09 07:17:49;;;;;;;25.57;16.90;;;6.30;65.90;;;;;;5077254;28;20520;-76
2021/01/09 07:20:19;;;;;;;23.00;17.70;;;6.30;65.80;;;;;;5090856;28;20446;-77
2021/01/09 07:22:49;;;;;;;29.20;18.87;;;6.40;65.90;;;;;;5089920;28;20604;-78
2021/01/09 07:25:32;;;;;;;28.33;19.77;;;6.40;65.80;;;;;;5088639;28;20597;-78
2021/01/09 07:28:01;;;;;;;26.90;19.93;;;6.40;65.60;;;;;;5092285;28;20477;-78
2021/01/09 07:30:29;;;;;;;25.10;17.43;;;6.40;65.50;;;;;;5086669;28;20454;-76
2021/01/09 07:32:56;;;;;;;25.90;17.23;;;6.40;65.50;;;;;;5091686;28;20541;-77
2021/01/09 07:35:25;;;;;;;28.07;20.20;;;6.40;65.40;;;;;;5082147;28;20487;-78
2021/01/09 07:38:00;;;;;;;29.40;19.67;;;6.40;65.50;;;;;;5092183;28;20533;-78
2021/01/09 07:40:32;;;;;;;29.70;19.50;;;6.40;65.70;;;;;;5094111;28;20456;-77
2021/01/09 07:42:59;;;;;;;27.20;17.80;;;6.40;65.50;;;;;;5090491;28;20524;-77
2021/01/09 07:45:31;;;;;;;20.43;16.27;;;6.40;65.50;;;;;;5082129;28;20483;-77
2021/01/09 07:47:58;;;;;;;28.97;19.30;;;6.40;65.40;;;;;;5077475;28;20507;-77
2021/01/09 07:50:25;;;;;;;25.40;17.60;;;6.40;65.40;;;;;;5095619;28;20785;-78
2021/01/09 07:53:06;;;;;;;26.10;17.70;;;6.40;65.60;;;;;;5093687;28;20467;-78
2021/01/09 07:55:45;;;;;;;26.97;18.90;;;6.40;65.70;;;;;;5080801;28;20809;-80
2021/01/09 07:58:12;;;;;;;26.70;19.47;;;6.40;65.50;;;;;;5093590;28;20709;-78
2021/01/09 08:00:42;;;;;;;29.13;19.53;;;6.30;65.50;;;;;;5089860;28;20467;-80
2021/01/09 08:03:10;;;;;;;29.73;17.50;;;6.30;66.00;;;;;;5084323;28;20501;-79
2021/01/09 08:05:37;;;;;;;22.40;17.13;;;6.30;66.40;;;;;;5110678;28;20526;-79
2021/01/09 08:08:06;;;;;;;26.00;18.30;;;6.20;66.80;;;;;;5097908;28;20620;-79
2021/01/09 08:10:34;;;;;;;20.97;16.10;;;6.30;67.30;;;;;;5089539;28;20455;-79
2021/01/09 08:13:03;;;;;;;23.10;16.63;;;6.30;67.50;;;;;;5096045;28;20444;-81
2021/01/09 08:15:31;;;;;;;20.60;16.57;;;6.30;67.50;;;;;;5094134;28;20473;-78
2021/01/09 08:18:00;;;;;;;17.77;14.57;;;6.30;67.50;;;;;;5080233;28;20451;-79
2021/01/09 08:20:27;;;;;;;18.33;15.27;;;6.30;67.50;;;;;;5086695;28;20550;-80
2021/01/09 08:22:56;;;;;;;19.40;16.20;;;6.30;67.40;;;;;;5095673;28;20469;-78
2021/01/09 08:25:26;;;;;;;23.00;17.17;;;6.30;67.20;;;;;;5091264;28;20908;-79
2021/01/09 08:27:54;;;;;;;20.00;16.07;;;6.30;67.20;;;;;;5095338;28;20451;-77
2021/01/09 08:30:22;;;;;;;23.17;18.97;;;6.30;67.40;;;;;;5076506;28;20892;-78
2021/01/09 08:32:49;;;;;;;24.90;17.47;;;6.30;67.50;;;;;;5092853;28;20473;-77
2021/01/09 08:35:17;;;;;;;24.93;17.80;;;6.40;67.50;;;;;;5092841;28;20477;-77
2021/01/09 08:37:44;;;;;;;26.43;17.77;;;6.40;67.40;;;;;;5095354;28;20450;-78
2021/01/09 08:40:13;;;;;;;24.37;19.23;;;6.50;67.50;;;;;;5093186;28;20537;-78
2021/01/09 08:42:55;;;;;;;31.17;20.43;;;6.50;67.50;;;;;;5093717;28;20485;-78
2021/01/09 08:45:50;;;;;;;22.13;17.07;;;6.50;67.20;;;;;;5095169;28;20497;-76
2021/01/09 08:48:20;;;;;;;23.50;16.80;;;6.60;67.20;;;;;;5085607;28;20857;-77
2021/01/09 08:51:12;;;;;;;28.33;18.20;;;6.60;66.90;;;;;;5093544;28;20454;-77
2021/01/09 08:53:51;;;;;;;30.23;19.33;;;6.60;66.50;;;;;;5055031;28;20478;-76
2021/01/09 08:56:20;;;;;;;25.07;18.30;;;6.60;66.20;;;;;;5094445;28;20503;-78
2021/01/09 08:58:48;;;;;;;28.60;19.43;;;6.40;65.70;;;;;;5086864;28;20479;-78
2021/01/09 09:01:15;;;;;;;25.90;17.97;;;6.40;66.20;;;;;;5087224;28;20443;-77
2021/01/09 09:03:44;;;;;;;24.03;17.53;;;6.40;66.20;;;;;;5093283;28;20452;-78
2021/01/09 09:06:15;;;;;;;30.47;19.57;;;6.40;66.40;;;;;;5082627;28;20999;-78
2021/01/09 09:08:42;;;;;;;25.43;18.07;;;6.50;66.60;;;;;;5086912;28;20562;-78
2021/01/09 09:11:10;;;;;;;26.40;20.13;;;6.50;66.50;;;;;;5094768;28;20805;-78
2021/01/09 09:13:37;;;;;;;21.80;17.80;;;6.50;66.30;;;;;;5092529;28;20506;-76
2021/01/09 09:16:25;;;;;;;24.30;17.73;;;6.60;66.20;;;;;;5074399;28;20463;-78
2021/01/09 09:18:52;;;;;;;28.10;18.57;;;6.60;66.00;;;;;;5079718;28;20455;-77
2021/01/09 09:21:19;;;;;;;20.93;15.70;;;6.60;66.10;;;;;;5080500;28;20515;-76
2021/01/09 09:23:52;;;;;;;27.20;18.10;;;6.60;66.10;;;;;;5082424;28;20462;-77
2021/01/09 09:26:18;;;;;;;23.67;18.53;;;6.60;65.50;;;;;;5094523;28;20522;-79
2021/01/09 09:28:51;;;;;;;27.13;19.30;;;6.60;65.40;;;;;;5093660;28;20457;-76
2021/01/09 09:31:19;;;;;;;21.23;17.97;;;6.60;65.50;;;;;;5073653;28;20444;-78
2021/01/09 09:34:03;;;;;;;28.73;19.37;;;6.60;65.40;;;;;;5076863;28;20831;-77
2021/01/09 09:36:31;;;;;;;23.77;17.60;;;6.60;65.20;;;;;;5080368;28;20454;-78
2021/01/09 09:38:58;;;;;;;28.33;19.23;;;6.60;64.80;;;;;;5087355;28;20907;-78
2021/01/09 09:41:25;;;;;;;22.07;17.50;;;6.60;65.00;;;;;;5075175;28;20464;-77
2021/01/09 09:43:59;;;;;;;23.13;17.00;;;6.60;65.10;;;;;;5073898;28;20458;-78
2021/01/09 09:46:27;;;;;;;23.97;17.00;;;6.60;65.00;;;;;;5073857;28;20545;-77
2021/01/09 09:49:00;;;;;;;26.10;18.67;;;6.60;65.10;;;;;;5090361;28;20459;-78
2021/01/09 09:51:34;;;;;;;18.00;14.40;;;6.60;65.00;;;;;;5085872;28;20542;-78
2021/01/09 09:54:01;;;;;;;20.33;15.40;;;6.60;64.30;;;;;;5073744;28;20534;-78
2021/01/09 09:56:35;;;;;;;21.70;15.63;;;6.50;64.20;;;;;;5077085;28;20455;-77
2021/01/09 09:59:03;;;;;;;20.73;14.70;;;6.50;64.00;;;;;;5086747;28;20461;-77
2021/01/09 10:01:30;;;;;;;22.70;14.70;;;6.40;64.00;;;;;;5090481;28;20436;-77
2021/01/09 10:03:58;;;;;;;23.63;15.90;;;6.40;64.00;;;;;;5089285;28;20470;-78
2021/01/09 10:06:34;;;;;;;18.77;14.33;;;6.50;64.10;;;;;;5073512;28;20484;-75
2021/01/09 10:09:10;;;;;;;16.53;14.30;;;6.50;64.10;;;;;;5089949;28;20984;-77
2021/01/09 10:11:36;;;;;;;19.07;14.70;;;6.60;64.00;;;;;;5084017;28;20547;-77
2021/01/09 10:14:04;;;;;;;20.97;15.37;;;6.60;63.90;;;;;;5080939;28;20454;-78
2021/01/09 10:16:31;;;;;;;21.13;14.80;;;6.70;63.70;;;;;;5086257;28;20505;-78
2021/01/09 10:18:58;;;;;;;17.70;13.20;;;6.70;63.80;;;;;;5086919;28;20443;-78
2021/01/09 10:21:27;;;;;;;16.60;13.43;;;6.80;63.30;;;;;;5084117;28;20555;-77
2021/01/09 10:23:54;;;;;;;19.73;14.53;;;6.80;63.00;;;;;;5078599;28;20473;-77
2021/01/09 10:26:28;;;;;;;21.37;14.80;;;6.80;62.80;;;;;;5073966;28;20487;-78
2021/01/09 10:28:55;;;;;;;20.47;14.80;;;6.80;62.30;;;;;;5073232;28;21186;-77
2021/01/09 10:31:32;;;;;;;19.67;13.93;;;6.80;62.00;;;;;;5084564;28;20446;-78
2021/01/09 10:34:00;;;;;;;17.30;14.17;;;6.80;62.00;;;;;;5076742;28;20820;-78
2021/01/09 10:36:28;;;;;;;19.60;15.00;;;6.70;61.90;;;;;;5078768;28;20452;-77
2021/01/09 10:38:55;;;;;;;18.23;13.27;;;6.80;62.20;;;;;;5093156;28;20485;-78
2021/01/09 10:41:22;;;;;;;19.13;15.27;;;6.80;61.90;;;;;;5088642;28;20457;-78
2021/01/09 10:43:49;;;;;;;23.90;15.50;;;6.80;62.00;;;;;;5093423;28;20538;-79
2021/01/09 10:46:21;;;;;;;17.83;13.60;;;6.80;62.00;;;;;;5082073;28;20573;-78
2021/01/09 10:48:48;;;;;;;19.70;15.50;;;6.90;62.00;;;;;;5089697;28;20458;-78
2021/01/09 10:51:17;;;;;;;17.83;14.80;;;6.90;61.70;;;;;;5088303;28;20448;-78
2021/01/09 10:53:44;;;;;;;17.40;13.30;;;6.90;62.00;;;;;;5084659;28;20540;-79
2021/01/09 10:56:10;;;;;;;20.27;13.70;;;6.80;60.80;;;;;;5091343;28;20443;-79
2021/01/09 10:58:37;;;;;;;18.63;13.57;;;6.70;60.50;;;;;;5093312;28;20520;-78
2021/01/09 11:01:04;;;;;;;15.57;12.47;;;6.70;60.90;;;;;;5091952;28;20457;-79
2021/01/09 11:03:31;;;;;;;18.00;14.20;;;6.70;61.10;;;;;;5086663;28;20933;-78
2021/01/09 11:05:57;;;;;;;17.70;13.47;;;6.70;61.10;;;;;;5084267;28;20527;-79
2021/01/09 11:08:26;;;;;;;18.37;13.37;;;6.80;61.20;;;;;;5084489;28;20537;-77
2021/01/09 11:10:52;;;;;;;19.80;14.67;;;6.80;60.80;;;;;;5087716;28;20456;-78
2021/01/09 11:13:19;;;;;;;19.33;14.57;;;6.90;61.00;;;;;;5081066;28;20987;-78
2021/01/09 11:15:46;;;;;;;18.33;13.70;;;7.00;60.80;;;;;;5072096;28;20448;-77
2021/01/09 11:18:14;;;;;;;19.40;14.93;;;7.00;60.20;;;;;;5084531;28;20444;-79
2021/01/09 11:20:44;;;;;;;20.50;15.63;;;7.10;60.00;;;;;;5087966;28;20465;-78
2021/01/09 11:23:11;;;;;;;22.13;14.40;;;7.10;59.90;;;;;;5084819;28;20536;-79
2021/01/09 11:25:43;;;;;;;17.40;13.80;;;7.10;59.60;;;;;;5081021;28;20978;-80
2021/01/09 11:28:09;;;;;;;21.97;14.63;;;7.20;59.50;;;;;;5091548;28;20443;-80
2021/01/09 11:30:36;;;;;;;16.50;13.97;;;7.20;59.20;;;;;;5092149;28;20501;-79
2021/01/09 11:33:03;;;;;;;13.80;11.60;;;7.20;59.10;;;;;;5091790;28;20465;-76
2021/01/09 11:35:29;;;;;;;16.40;12.97;;;7.20;58.70;;;;;;5090926;28;20470;-80
2021/01/09 11:37:58;;;;;;;13.60;10.00;;;7.20;58.80;;;;;;5088670;28;20462;-78
2021/01/09 11:40:26;;;;;;;17.77;13.93;;;7.30;58.70;;;;;;5091998;28;20447;-77
2021/01/09 11:42:53;;;;;;;14.40;11.90;;;7.40;58.70;;;;;;5091189;28;20455;-78
2021/01/09 11:45:23;;;;;;;17.63;13.27;;;7.50;58.60;;;;;;5089957;28;20475;-78
2021/01/09 11:47:49;;;;;;;15.03;11.50;;;7.80;58.50;;;;;;5081597;28;20451;-78
2021/01/09 11:50:16;;;;;;;14.30;10.43;;;9.00;57.10;;;;;;5082608;28;20812;-79
2021/01/09 11:52:43;;;;;;;13.87;10.60;;;9.30;54.30;;;;;;5091976;28;20468;-79
2021/01/09 11:55:10;;;;;;;13.83;12.20;;;9.20;51.80;;;;;;5091698;28;20542;-81
2021/01/09 11:57:37;;;;;;;15.20;10.80;;;9.10;52.60;;;;;;5089948;28;20455;-78
2021/01/09 12:00:07;;;;;;;23.73;15.90;;;9.00;52.30;;;;;;5090980;28;20462;-79
2021/01/09 12:02:34;;;;;;;12.17;9.77;;;8.80;52.80;;;;;;5076589;28;20859;-78
2021/01/09 12:05:00;;;;;;;12.47;9.70;;;8.70;52.90;;;;;;5082714;28;20497;-78
2021/01/09 12:07:27;;;;;;;14.73;9.53;;;8.60;53.00;;;;;;5074483;28;20848;-81
2021/01/09 12:09:54;;;;;;;11.07;8.67;;;8.30;52.50;;;;;;5089148;28;20445;-78
2021/01/09 12:12:20;;;;;;;11.93;8.77;;;8.10;52.40;;;;;;5070214;28;20450;-80
2021/01/09 12:14:47;;;;;;;10.97;8.67;;;8.00;52.40;;;;;;5091942;28;20847;-78
2021/01/09 12:17:14;;;;;;;9.00;8.07;;;7.90;52.60;;;;;;5092517;28;20456;-79
2021/01/09 12:19:41;;;;;;;11.27;8.50;;;7.80;52.00;;;;;;5084179;28;20979;-78
2021/01/09 12:22:11;;;;;;;10.50;8.40;;;7.80;52.00;;;;;;5091940;28;20479;-76
2021/01/09 12:24:37;;;;;;;11.00;8.23;;;7.80;52.10;;;;;;5091566;28;20457;-77
2021/01/09 12:27:05;;;;;;;10.77;7.40;;;7.90;52.10;;;;;;5093772;28;20514;-77
2021/01/09 12:29:31;;;;;;;11.30;8.50;;;7.90;51.80;;;;;;5094157;28;20452;-77
2021/01/09 12:31:58;;;;;;;9.67;7.80;;;7.90;51.70;;;;;;5082619;28;20445;-77
2021/01/09 12:34:25;;;;;;;12.70;9.60;;;7.90;51.60;;;;;;5080431;28;20468;-78
2021/01/09 12:36:53;;;;;;;10.80;8.23;;;7.90;51.50;;;;;;5094876;28;20452;-76
2021/01/09 12:39:20;;;;;;;11.20;9.53;;;7.80;51.60;;;;;;5091767;28;20451;-76
2021/01/09 12:41:47;;;;;;;8.00;7.20;;;7.70;51.70;;;;;;5090474;28;20972;-77
2021/01/09 12:44:15;;;;;;;8.23;6.80;;;7.60;51.40;;;;;;5095156;28;20457;-76
2021/01/09 12:46:47;;;;;;;8.23;6.83;;;7.50;51.40;;;;;;5091266;28;20518;-77
2021/01/09 12:49:16;;;;;;;10.77;7.67;;;7.30;51.40;;;;;;5095253;28;20447;-78